Time;durP1;ratioP1;P1;durP2;ratioP2;P2;SDS_P1;SDS_P2;PMS_P1;PMS_P2;Temp;Humidity;BMP_temperature;BMP_pressure;BME280_temperature;BME280_humidity;BME280_pressure;Samples;Min_cycle;Max_cycle;Signal;HPM_P1;HPM_P2
2023/01/11 00:01:51;;;;;;;0.70;0.70;;;3.60;99.90;;;;;;5032890;28;20033;-74
2023/01/11 00:04:17;;;;;;;0.98;0.98;;;3.60;99.90;;;;;;5033792;28;20049;-73
2023/01/11 00:06:43;;;;;;;0.90;0.90;;;3.70;99.90;;;;;;5009087;28;20026;-73
2023/01/11 00:09:09;;;;;;;0.60;0.60;;;3.70;99.90;;;;;;5013679;28;20079;-72
2023/01/11 00:11:34;;;;;;;0.70;0.70;;;3.70;99.90;;;;;;5013777;28;20030;-73
2023/01/11 00:14:00;;;;;;;2.05;0.80;;;3.70;99.90;;;;;;5013779;28;20061;-73
2023/01/11 00:16:25;;;;;;;0.70;0.70;;;3.70;99.90;;;;;;5033272;28;20030;-72
2023/01/11 00:18:51;;;;;;;1.52;1.42;;;3.70;99.90;;;;;;5033236;28;20475;-72
2023/01/11 00:21:16;;;;;;;0.70;0.70;;;3.70;99.90;;;;;;5026919;28;20064;-74
2023/01/11 00:23:42;;;;;;;0.50;0.50;;;3.70;99.90;;;;;;5013549;28;20049;-74
2023/01/11 00:26:11;;;;;;;0.60;0.60;;;3.70;99.90;;;;;;5002610;28;20021;-74
2023/01/11 00:28:37;;;;;;;0.70;0.70;;;3.70;99.90;;;;;;5026060;28;20032;-74
2023/01/11 00:31:03;;;;;;;0.70;0.70;;;3.80;99.90;;;;;;5019517;28;20403;-74
2023/01/11 00:33:28;;;;;;;0.65;0.65;;;3.80;99.90;;;;;;5033024;28;20108;-74
2023/01/11 00:35:54;;;;;;;0.50;0.50;;;3.80;99.90;;;;;;5015290;28;20444;-73
2023/01/11 00:49:18;;;;;;;1.05;1.00;;;3.70;99.90;;;;;;5023822;28;20044;-73
2023/01/11 00:51:44;;;;;;;0.60;0.60;;;3.70;99.90;;;;;;5028942;28;20050;-73
2023/01/11 00:54:10;;;;;;;0.50;0.50;;;3.70;99.90;;;;;;5015059;28;20087;-72
2023/01/11 00:56:36;;;;;;;0.55;0.55;;;3.70;99.90;;;;;;4999367;28;20380;-73
2023/01/11 00:59:02;;;;;;;0.70;0.70;;;3.70;99.90;;;;;;5012600;28;20076;-73
2023/01/11 01:01:27;;;;;;;0.50;0.50;;;3.70;99.90;;;;;;5024440;28;20057;-72
2023/01/11 01:03:53;;;;;;;0.60;0.60;;;3.70;99.90;;;;;;5032628;28;20064;-73
2023/01/11 01:06:18;;;;;;;0.70;0.70;;;3.60;99.90;;;;;;5014567;28;20032;-73
2023/01/11 01:08:44;;;;;;;0.60;0.60;;;3.60;99.90;;;;;;5032845;28;20025;-72
2023/01/11 01:11:09;;;;;;;0.60;0.60;;;3.60;99.90;;;;;;5030138;28;20463;-72
2023/01/11 01:16:19;;;;;;;0.65;0.65;;;3.70;99.90;;;;;;5013008;28;20028;-73
2023/01/11 01:18:45;;;;;;;0.63;0.63;;;3.70;99.90;;;;;;5012319;28;20454;-73
2023/01/11 01:21:11;;;;;;;0.88;0.88;;;3.70;99.90;;;;;;4999047;28;20022;-72
2023/01/11 01:23:36;;;;;;;0.70;0.70;;;3.70;99.90;;;;;;5032284;28;20080;-72
2023/01/11 01:26:03;;;;;;;4.10;1.02;;;3.70;99.90;;;;;;5032163;28;20028;-72
2023/01/11 01:28:29;;;;;;;0.60;0.60;;;3.70;99.90;;;;;;4996719;28;20025;-72
2023/01/11 01:30:54;;;;;;;0.90;0.90;;;3.70;99.90;;;;;;4994769;28;20030;-72
2023/01/11 01:33:20;;;;;;;0.90;0.90;;;3.70;99.90;;;;;;5052439;23;20048;-72
2023/01/11 01:35:46;;;;;;;0.88;0.88;;;3.70;99.90;;;;;;5044385;28;20662;-73
2023/01/11 01:38:11;;;;;;;0.70;0.70;;;3.70;99.90;;;;;;5049491;28;20033;-73
2023/01/11 01:40:45;;;;;;;0.70;0.70;;;3.80;99.90;;;;;;5049625;28;20100;-73
2023/01/11 01:43:13;;;;;;;0.88;0.88;;;3.70;99.90;;;;;;5046819;28;20139;-73
2023/01/11 01:45:42;;;;;;;0.70;0.70;;;3.70;99.90;;;;;;5047893;28;20025;-73
2023/01/11 01:48:17;;;;;;;0.60;0.60;;;3.70;99.90;;;;;;5039751;28;20029;-75
2023/01/11 01:50:47;;;;;;;0.70;0.70;;;3.70;99.90;;;;;;5038658;28;20501;-74
2023/01/11 01:53:22;;;;;;;0.70;0.70;;;3.60;99.90;;;;;;5042148;28;20030;-75
2023/01/11 01:55:54;;;;;;;0.68;0.68;;;3.60;99.90;;;;;;5045415;28;20025;-75
2023/01/11 01:58:25;;;;;;;0.77;0.77;;;3.60;99.90;;;;;;5041932;28;20501;-74
2023/01/11 02:00:51;;;;;;;1.63;1.63;;;3.60;99.90;;;;;;5038567;28;20118;-75
2023/01/11 02:03:20;;;;;;;0.77;0.77;;;3.60;99.90;;;;;;5038041;28;20045;-73
2023/01/11 02:05:47;;;;;;;1.17;1.17;;;3.60;99.90;;;;;;5051155;28;20036;-73
2023/01/11 02:08:31;;;;;;;1.27;1.27;;;3.60;99.90;;;;;;5051465;28;20022;-73
2023/01/11 02:10:58;;;;;;;1.30;1.30;;;3.60;99.90;;;;;;5040252;28;20111;-73
2023/01/11 02:13:24;;;;;;;0.70;0.70;;;3.60;99.90;;;;;;5049514;28;20467;-74
2023/01/11 02:16:06;;;;;;;0.70;0.70;;;3.60;99.90;;;;;;5040615;28;20159;-74
2023/01/11 02:18:33;;;;;;;0.77;0.77;;;3.60;99.90;;;;;;5041034;28;20025;-74
2023/01/11 02:21:29;;;;;;;1.38;1.38;;;3.50;99.90;;;;;;5055777;28;20025;-73
2023/01/11 02:24:14;;;;;;;;;;;3.60;99.90;;;;;;5055120;28;20063;-72
2023/01/11 02:27:04;;;;;;;0.98;0.98;;;3.60;99.90;;;;;;5041027;28;19912;-73
2023/01/11 02:29:55;;;;;;;0.98;0.98;;;3.60;99.90;;;;;;5054257;28;20453;-73
2023/01/11 02:32:35;;;;;;;0.98;0.98;;;3.60;99.90;;;;;;5055211;28;20036;-73
2023/01/11 02:35:11;;;;;;;0.90;0.90;;;3.60;99.90;;;;;;5055657;28;20087;-73
2023/01/11 02:38:00;;;;;;;0.70;0.70;;;3.60;99.90;;;;;;5043564;28;20381;-73
2023/01/11 02:40:45;;;;;;;1.20;1.17;;;3.60;99.90;;;;;;5041806;28;20025;-73
2023/01/11 02:46:17;;;;;;;1.20;1.20;;;3.60;99.90;;;;;;5044409;28;20079;-73
2023/01/11 02:48:53;;;;;;;1.00;1.00;;;3.60;99.90;;;;;;5048551;28;20074;-73
2023/01/11 02:51:21;;;;;;;1.10;1.10;;;3.60;99.90;;;;;;5048781;28;20021;-73
2023/01/11 02:53:57;;;;;;;1.05;1.05;;;3.60;99.90;;;;;;5040936;28;20124;-73
2023/01/11 02:56:26;;;;;;;1.40;1.40;;;3.60;99.90;;;;;;5052888;28;20082;-73
2023/01/11 02:58:54;;;;;;;1.20;1.20;;;3.60;99.90;;;;;;5033380;28;20025;-73
2023/01/11 03:01:21;;;;;;;1.30;1.30;;;3.60;99.90;;;;;;5051017;28;20017;-73
2023/01/11 03:03:48;;;;;;;1.77;1.67;;;3.70;99.90;;;;;;5054850;28;20421;-73
2023/01/11 03:06:19;;;;;;;1.60;1.60;;;3.70;99.90;;;;;;5037353;28;20026;-73
2023/01/11 03:09:05;;;;;;;1.27;1.27;;;3.60;99.90;;;;;;5045130;28;20070;-73
2023/01/11 03:15:07;;;;;;;2.58;2.30;;;3.70;99.90;;;;;;5034848;28;20036;-75
2023/01/11 03:18:12;;;;;;;1.40;1.40;;;3.70;99.90;;;;;;5050666;28;20433;-75
2023/01/11 03:20:41;;;;;;;1.90;1.83;;;3.70;99.90;;;;;;5040629;28;20037;-74
2023/01/11 03:23:21;;;;;;;1.98;1.88;;;3.70;99.90;;;;;;5046849;28;20053;-74
2023/01/11 03:26:08;;;;;;;3.03;2.78;;;3.70;99.90;;;;;;5048038;28;20029;-74
2023/01/11 03:29:10;;;;;;;1.70;1.70;;;3.70;99.90;;;;;;5034415;28;20022;-73
2023/01/11 03:31:48;;;;;;;1.50;1.50;;;3.80;99.90;;;;;;5033531;28;20034;-74
2023/01/11 03:34:36;;;;;;;2.35;2.25;;;3.80;99.90;;;;;;5040120;28;20508;-73
2023/01/11 03:37:09;;;;;;;2.22;2.13;;;3.90;99.90;;;;;;5052905;28;20051;-73
2023/01/11 03:39:43;;;;;;;1.92;1.92;;;3.90;99.90;;;;;;5054355;28;20470;-73
2023/01/11 03:42:12;;;;;;;2.80;2.55;;;3.90;99.90;;;;;;5049179;28;20028;-73
2023/01/11 03:44:43;;;;;;;2.33;2.22;;;3.90;99.90;;;;;;5046381;28;20487;-73
2023/01/11 03:47:13;;;;;;;2.15;2.10;;;3.90;99.90;;;;;;5054003;28;20024;-73
2023/01/11 03:49:47;;;;;;;2.00;2.00;;;3.90;99.90;;;;;;5040685;28;20018;-73
2023/01/11 03:52:16;;;;;;;2.70;2.60;;;3.90;99.90;;;;;;5041787;28;20483;-73
2023/01/11 03:54:43;;;;;;;2.38;2.28;;;3.90;99.90;;;;;;5052554;28;20025;-74
2023/01/11 03:57:18;;;;;;;4.90;4.70;;;3.90;99.90;;;;;;5042115;28;20035;-73
2023/01/11 03:59:44;;;;;;;2.88;2.78;;;3.90;99.90;;;;;;5040700;28;20033;-74
2023/01/11 04:02:23;;;;;;;3.03;2.92;;;3.90;99.90;;;;;;5053841;28;20033;-75
2023/01/11 04:04:48;;;;;;;4.18;3.95;;;3.90;99.90;;;;;;5035879;28;20489;-73
2023/01/11 04:07:14;;;;;;;3.13;3.03;;;3.90;99.90;;;;;;5033673;28;20108;-74
2023/01/11 04:09:40;;;;;;;3.75;3.55;;;3.90;99.90;;;;;;5051158;28;20095;-75
2023/01/11 04:12:06;;;;;;;4.05;3.95;;;3.90;99.90;;;;;;5041408;28;20041;-73
2023/01/11 04:14:31;;;;;;;4.10;4.00;;;3.90;99.90;;;;;;5037682;28;20022;-73
2023/01/11 04:16:57;;;;;;;3.65;3.55;;;4.00;99.90;;;;;;5052138;28;20078;-73
2023/01/11 04:19:22;;;;;;;4.70;4.50;;;4.00;99.90;;;;;;5048441;28;20029;-74
2023/01/11 04:21:48;;;;;;;4.07;3.97;;;4.00;99.90;;;;;;5042647;28;20021;-73
2023/01/11 04:24:13;;;;;;;3.85;3.75;;;4.00;99.90;;;;;;5034887;28;20021;-73
2023/01/11 04:26:39;;;;;;;3.83;3.63;;;4.00;99.90;;;;;;5043782;28;20025;-72
2023/01/11 04:29:05;;;;;;;4.25;4.10;;;4.00;99.90;;;;;;5066481;28;20021;-74
2023/01/11 04:31:31;;;;;;;3.75;3.65;;;4.00;99.90;;;;;;5052047;28;20036;-74
2023/01/11 04:33:56;;;;;;;4.25;4.15;;;4.10;99.90;;;;;;5038517;28;20036;-73
2023/01/11 04:36:22;;;;;;;4.05;3.95;;;4.10;99.90;;;;;;5053217;28;20056;-73
2023/01/11 04:38:48;;;;;;;3.83;3.72;;;4.10;99.90;;;;;;5052694;28;20070;-73
2023/01/11 04:43:57;;;;;;;4.78;4.57;;;4.20;99.90;;;;;;5039810;28;20032;-74
2023/01/11 04:46:23;;;;;;;4.78;4.60;;;4.20;99.90;;;;;;5052928;28;20021;-73
2023/01/11 04:48:49;;;;;;;4.25;4.15;;;4.30;99.90;;;;;;5039001;28;20108;-72
2023/01/11 04:51:15;;;;;;;4.00;3.90;;;4.30;99.90;;;;;;5053062;28;20033;-73
2023/01/11 04:53:41;;;;;;;4.43;4.32;;;4.30;99.90;;;;;;5039666;28;20036;-73
2023/01/11 04:56:08;;;;;;;4.20;4.10;;;4.30;99.90;;;;;;5039214;28;20038;-73
2023/01/11 04:58:34;;;;;;;4.93;4.72;;;4.40;99.90;;;;;;5045939;28;20057;-73
2023/01/11 05:01:06;;;;;;;7.32;6.70;;;4.40;99.90;;;;;;5054173;28;20071;-73
2023/01/11 05:03:32;;;;;;;4.43;4.32;;;4.40;99.90;;;;;;5043152;28;20025;-73
2023/01/11 05:05:59;;;;;;;4.72;4.57;;;4.50;99.90;;;;;;5051937;28;20017;-72
2023/01/11 05:08:26;;;;;;;4.85;4.57;;;4.50;99.90;;;;;;5040860;28;20033;-73
2023/01/11 05:10:58;;;;;;;5.65;5.45;;;4.50;99.90;;;;;;5037970;28;20026;-75
2023/01/11 05:13:42;;;;;;;6.57;6.28;;;4.50;99.90;;;;;;5041796;28;20029;-75
2023/01/11 05:16:10;;;;;;;4.72;4.60;;;4.60;99.90;;;;;;5046161;28;20034;-75
2023/01/11 05:18:44;;;;;;;5.80;5.60;;;4.60;99.90;;;;;;5044735;28;20025;-74
2023/01/11 05:21:12;;;;;;;6.47;6.28;;;4.60;99.90;;;;;;5038067;28;20047;-73
2023/01/11 05:23:38;;;;;;;4.85;4.55;;;4.50;99.90;;;;;;5052236;28;20104;-73
2023/01/11 05:26:19;;;;;;;5.80;5.10;;;4.50;99.90;;;;;;5052524;28;20111;-73
2023/01/11 05:28:45;;;;;;;5.47;5.28;;;4.50;99.90;;;;;;5037029;28;20027;-73
2023/01/11 05:31:11;;;;;;;6.53;5.97;;;4.60;99.90;;;;;;5043866;28;20043;-72
2023/01/11 05:33:37;;;;;;;5.53;5.32;;;4.60;99.90;;;;;;5030750;28;20041;-72
2023/01/11 05:36:06;;;;;;;5.75;5.55;;;4.60;99.90;;;;;;5047574;28;20025;-72
2023/01/11 05:38:32;;;;;;;5.60;5.40;;;4.60;99.90;;;;;;5038428;28;20033;-72
2023/01/11 05:41:01;;;;;;;6.05;5.85;;;4.60;99.90;;;;;;5042356;28;20026;-72
2023/01/11 05:43:29;;;;;;;5.05;4.85;;;4.60;99.90;;;;;;5047474;28;20040;-73
2023/01/11 05:45:55;;;;;;;5.55;5.35;;;4.60;99.90;;;;;;5044466;28;20045;-73
2023/01/11 05:48:21;;;;;;;7.13;6.82;;;4.60;99.90;;;;;;5047987;28;20049;-74
2023/01/11 05:50:54;;;;;;;6.47;6.28;;;4.60;99.90;;;;;;5042849;28;20033;-73
2023/01/11 05:53:21;;;;;;;5.22;5.03;;;4.60;99.90;;;;;;5044869;28;20045;-73
2023/01/11 05:55:52;;;;;;;6.15;5.95;;;4.60;99.90;;;;;;5042254;28;20036;-73
2023/01/11 05:58:17;;;;;;;6.13;5.93;;;4.70;99.90;;;;;;5047524;28;20104;-74
2023/01/11 06:00:43;;;;;;;5.55;5.35;;;4.70;99.90;;;;;;5042931;28;20048;-73
2023/01/11 06:03:08;;;;;;;6.10;5.90;;;4.70;99.90;;;;;;5047571;28;20062;-73
2023/01/11 06:05:34;;;;;;;5.90;5.70;;;4.70;99.90;;;;;;5041404;28;20021;-73
2023/01/11 06:07:59;;;;;;;5.82;5.63;;;4.70;99.90;;;;;;5038357;28;20083;-73
2023/01/11 06:10:25;;;;;;;5.93;5.72;;;4.80;99.90;;;;;;5051782;28;20036;-73
2023/01/11 06:13:25;;;;;;;5.53;5.32;;;4.80;99.90;;;;;;5038371;28;20474;-74
2023/01/11 06:15:36;;;;;;;6.40;6.20;;;4.80;99.90;;;;;;5038181;28;20120;-73
2023/01/11 06:18:02;;;;;;;6.35;6.15;;;4.80;99.90;;;;;;5043012;28;20120;-74
2023/01/11 06:20:28;;;;;;;6.13;5.93;;;4.80;99.90;;;;;;5045033;28;20021;-74
2023/01/11 06:22:53;;;;;;;6.05;5.85;;;4.80;99.90;;;;;;5038899;28;20033;-74
2023/01/11 06:25:19;;;;;;;5.70;5.50;;;4.80;99.90;;;;;;5051099;28;20025;-74
2023/01/11 06:27:44;;;;;;;6.63;6.43;;;4.90;99.90;;;;;;5044217;28;20029;-73
2023/01/11 06:30:10;;;;;;;6.43;6.22;;;4.80;99.90;;;;;;5058412;28;20376;-73
2023/01/11 06:32:36;;;;;;;6.30;6.10;;;4.90;99.90;;;;;;5038107;28;20033;-74
2023/01/11 06:35:01;;;;;;;7.00;6.80;;;4.90;99.90;;;;;;5051477;28;20401;-73
2023/01/11 06:37:27;;;;;;;6.07;5.88;;;4.90;99.90;;;;;;5051324;28;20033;-73
2023/01/11 06:39:52;;;;;;;6.00;5.80;;;4.90;99.90;;;;;;5051610;28;20036;-73
2023/01/11 06:42:18;;;;;;;6.28;6.07;;;4.90;99.90;;;;;;5030250;28;20025;-75
2023/01/11 06:44:43;;;;;;;5.75;5.55;;;5.00;99.90;;;;;;5044405;28;20021;-72
2023/01/11 06:47:09;;;;;;;5.55;5.25;;;5.00;99.90;;;;;;5038107;28;20029;-74
2023/01/11 06:49:34;;;;;;;7.75;7.15;;;5.00;99.90;;;;;;5038235;28;20384;-74
2023/01/11 06:52:00;;;;;;;7.15;6.95;;;5.10;99.90;;;;;;5044702;28;20079;-73
2023/01/11 06:54:25;;;;;;;7.07;6.78;;;5.10;99.90;;;;;;5044680;28;20082;-72
2023/01/11 06:56:51;;;;;;;6.43;6.22;;;5.10;99.90;;;;;;5037931;28;20112;-72
2023/01/11 06:59:16;;;;;;;8.93;8.63;;;5.10;99.90;;;;;;5051177;28;20085;-73
2023/01/11 07:01:42;;;;;;;7.68;7.38;;;5.10;99.90;;;;;;5037869;28;20052;-73
2023/01/11 07:04:08;;;;;;;9.02;8.73;;;5.00;99.90;;;;;;5040482;28;20030;-73
2023/01/11 07:06:34;;;;;;;7.88;7.32;;;5.00;99.90;;;;;;5053125;28;20020;-73
2023/01/11 07:09:00;;;;;;;7.95;7.65;;;5.00;99.90;;;;;;5041860;28;20072;-73
2023/01/11 07:11:25;;;;;;;6.38;6.18;;;5.10;99.90;;;;;;5048330;28;20033;-74
2023/01/11 07:13:51;;;;;;;6.30;6.10;;;5.10;99.90;;;;;;5047964;28;20024;-73
2023/01/11 07:16:16;;;;;;;8.05;7.75;;;5.10;99.90;;;;;;5041533;28;20029;-73
2023/01/11 07:18:42;;;;;;;7.20;6.90;;;5.20;99.90;;;;;;5040542;28;20033;-72
2023/01/11 07:21:08;;;;;;;8.23;7.90;;;5.10;99.90;;;;;;5046856;28;20021;-74
2023/01/11 07:23:33;;;;;;;7.10;6.90;;;5.20;99.90;;;;;;5046961;28;20104;-71
2023/01/11 07:25:59;;;;;;;6.53;6.32;;;5.20;99.90;;;;;;5041302;28;20029;-72
2023/01/11 07:28:27;;;;;;;8.93;8.52;;;5.30;99.90;;;;;;5054557;28;20067;-73
2023/01/11 07:30:52;;;;;;;7.07;6.88;;;5.30;99.90;;;;;;5054661;28;20040;-73
2023/01/11 07:33:18;;;;;;;6.80;6.60;;;5.30;99.90;;;;;;5042022;28;20108;-73
2023/01/11 07:35:43;;;;;;;6.40;6.10;;;5.30;99.90;;;;;;5039313;28;20029;-73
2023/01/11 07:38:10;;;;;;;8.00;7.57;;;5.30;99.90;;;;;;5052852;28;20033;-73
2023/01/11 07:40:36;;;;;;;15.85;14.98;;;5.30;99.90;;;;;;5033632;28;20018;-73
2023/01/11 07:43:13;;;;;;;7.50;7.20;;;5.40;99.90;;;;;;5034298;28;20118;-73
2023/01/11 07:45:44;;;;;;;6.35;6.15;;;5.40;99.90;;;;;;5040598;28;20025;-73
2023/01/11 07:48:11;;;;;;;7.60;7.20;;;5.50;99.90;;;;;;5040525;28;20021;-73
2023/01/11 07:50:38;;;;;;;5.38;5.18;;;5.50;99.90;;;;;;5052764;28;20055;-73
2023/01/11 07:53:04;;;;;;;6.55;6.30;;;5.50;99.90;;;;;;5038757;28;20033;-72
2023/01/11 07:55:29;;;;;;;6.60;6.40;;;5.50;99.90;;;;;;5034220;28;20542;-73
2023/01/11 07:57:56;;;;;;;8.07;7.78;;;5.60;99.90;;;;;;5047189;28;20033;-73
2023/01/11 08:00:23;;;;;;;6.57;6.38;;;5.60;99.90;;;;;;5042400;28;20028;-73
2023/01/11 08:02:51;;;;;;;7.60;7.30;;;5.60;99.90;;;;;;5053748;28;20086;-72
2023/01/11 08:05:17;;;;;;;6.07;5.88;;;5.50;99.90;;;;;;5052614;28;20025;-73
2023/01/11 08:07:43;;;;;;;7.22;7.03;;;5.60;99.90;;;;;;5040225;28;20059;-73
2023/01/11 08:10:09;;;;;;;6.90;6.70;;;5.60;99.90;;;;;;5044896;28;20037;-73
2023/01/11 08:15:32;;;;;;;7.47;7.25;;;5.60;99.90;;;;;;5039508;28;20052;-73
2023/01/11 08:17:58;;;;;;;8.10;7.80;;;5.60;99.90;;;;;;5046318;28;20036;-73
2023/01/11 08:20:25;;;;;;;8.90;8.60;;;5.60;99.90;;;;;;5045855;28;20032;-73
2023/01/11 08:22:52;;;;;;;8.75;8.35;;;5.60;99.90;;;;;;5045261;28;20025;-73
2023/01/11 08:25:17;;;;;;;9.30;9.00;;;5.60;99.90;;;;;;5047057;28;20032;-73
2023/01/11 08:27:43;;;;;;;10.15;9.75;;;5.60;99.90;;;;;;5046193;28;20026;-72
2023/01/11 08:30:10;;;;;;;8.68;8.38;;;5.60;99.90;;;;;;5046718;28;20024;-72
2023/01/11 08:32:35;;;;;;;9.25;8.95;;;5.60;99.90;;;;;;5053024;28;20091;-73
2023/01/11 08:35:01;;;;;;;11.90;11.50;;;5.60;99.90;;;;;;5051885;28;20033;-73
2023/01/11 08:37:27;;;;;;;10.02;9.70;;;5.60;99.90;;;;;;5044638;28;20029;-73
2023/01/11 08:39:54;;;;;;;10.95;10.55;;;5.60;99.90;;;;;;5046505;28;20021;-73
2023/01/11 08:42:20;;;;;;;11.60;11.20;;;5.60;99.90;;;;;;5033150;28;20076;-73
2023/01/11 08:44:45;;;;;;;10.27;9.90;;;5.60;99.90;;;;;;5046069;28;20021;-73
2023/01/11 08:47:11;;;;;;;10.85;10.45;;;5.70;99.90;;;;;;5045087;28;20025;-73
2023/01/11 08:49:36;;;;;;;12.07;11.68;;;5.70;99.90;;;;;;5047289;28;20568;-73
2023/01/11 08:52:02;;;;;;;10.10;9.70;;;5.70;99.90;;;;;;5052899;28;20539;-73
2023/01/11 08:54:27;;;;;;;11.45;10.98;;;5.70;99.90;;;;;;5052700;28;20031;-73
2023/01/11 08:56:54;;;;;;;11.35;10.95;;;5.70;99.90;;;;;;5045455;28;20103;-73
2023/01/11 08:59:21;;;;;;;12.20;11.70;;;5.70;99.90;;;;;;5032519;28;20029;-72
2023/01/11 09:01:46;;;;;;;13.60;12.80;;;5.70;99.90;;;;;;5032813;28;20024;-74
2023/01/11 09:04:12;;;;;;;10.98;10.57;;;5.70;99.90;;;;;;5033856;28;20033;-73
2023/01/11 09:06:38;;;;;;;12.50;12.10;;;5.70;99.90;;;;;;5051073;28;20021;-73
2023/01/11 09:09:03;;;;;;;12.02;11.63;;;5.70;99.90;;;;;;5052144;28;20406;-74
2023/01/11 09:14:13;;;;;;;12.40;12.00;;;5.80;99.90;;;;;;5046510;28;20037;-74
2023/01/11 09:16:38;;;;;;;13.38;12.88;;;5.80;99.90;;;;;;5032535;28;20029;-73
2023/01/11 09:19:04;;;;;;;14.50;14.00;;;5.80;99.90;;;;;;5032318;28;20372;-73
2023/01/11 09:21:30;;;;;;;12.77;12.30;;;5.90;99.90;;;;;;5042517;28;20037;-73
2023/01/11 09:23:55;;;;;;;14.85;14.23;;;5.90;99.90;;;;;;5034374;28;20506;-73
2023/01/11 09:26:21;;;;;;;14.23;13.73;;;6.00;99.90;;;;;;5032295;28;20030;-73
2023/01/11 09:28:47;;;;;;;13.48;12.98;;;6.00;99.90;;;;;;5062250;28;20029;-73
2023/01/11 09:31:12;;;;;;;12.75;12.10;;;6.10;99.90;;;;;;5042911;28;20087;-73
2023/01/11 09:33:38;;;;;;;14.68;14.15;;;6.10;99.90;;;;;;5046699;28;20116;-73
2023/01/11 09:36:04;;;;;;;14.10;13.60;;;6.20;99.90;;;;;;5051762;28;20057;-76
2023/01/11 09:38:32;;;;;;;14.43;13.93;;;6.20;99.90;;;;;;5034840;28;20029;-73
2023/01/11 09:41:10;;;;;;;18.85;18.15;;;6.20;99.90;;;;;;5041124;28;20116;-73
2023/01/11 09:43:44;;;;;;;13.95;13.43;;;6.30;99.90;;;;;;5047782;28;20433;-73
2023/01/11 09:46:12;;;;;;;15.60;15.00;;;6.30;99.90;;;;;;5043713;28;20025;-72
2023/01/11 09:48:47;;;;;;;14.45;13.95;;;6.40;99.90;;;;;;5036747;28;20025;-73
2023/01/11 09:51:15;;;;;;;13.40;12.90;;;6.50;99.90;;;;;;5038519;28;20017;-73
2023/01/11 09:53:48;;;;;;;14.35;13.80;;;6.50;99.90;;;;;;5050645;28;20029;-73
2023/01/11 09:56:22;;;;;;;13.93;13.43;;;6.50;99.90;;;;;;5037031;28;20025;-73
2023/01/11 09:59:04;;;;;;;12.43;12.02;;;6.60;99.90;;;;;;5031564;28;20061;-73
2023/01/11 10:01:37;;;;;;;12.30;11.85;;;6.70;99.90;;;;;;5048967;28;20021;-73
2023/01/11 10:04:15;;;;;;;14.95;14.45;;;6.60;99.90;;;;;;5040008;28;20048;-74
2023/01/11 10:07:07;;;;;;;11.68;11.27;;;6.70;99.90;;;;;;5038073;28;20017;-73
2023/01/11 10:09:44;;;;;;;11.88;11.48;;;6.70;99.90;;;;;;5038587;28;20024;-73
2023/01/11 10:12:31;;;;;;;12.88;12.38;;;6.90;99.90;;;;;;5037830;28;20028;-72
2023/01/11 10:15:24;;;;;;;10.50;10.00;;;6.80;99.90;;;;;;5038878;28;20037;-73
2023/01/11 10:18:17;;;;;;;13.38;12.88;;;6.80;99.90;;;;;;5048952;28;20028;-73
2023/01/11 10:20:49;;;;;;;11.43;10.93;;;6.80;99.90;;;;;;5033634;28;20037;-73
2023/01/11 10:23:32;;;;;;;11.70;11.30;;;6.80;99.90;;;;;;5039591;28;20021;-72
2023/01/11 10:26:03;;;;;;;11.23;10.80;;;6.80;99.90;;;;;;5043799;28;20109;-74
2023/01/11 10:29:02;;;;;;;14.50;13.85;;;6.50;99.90;;;;;;5042188;28;20036;-73
2023/01/11 10:34:41;;;;;;;10.60;10.20;;;6.80;99.90;;;;;;5045288;28;20048;-74
2023/01/11 10:43:15;;;;;;;12.20;11.80;;;6.80;99.90;;;;;;5041925;28;20036;-73
2023/01/11 10:45:53;;;;;;;11.85;11.35;;;6.80;99.90;;;;;;5042603;28;20521;-73
2023/01/11 10:48:32;;;;;;;12.30;11.90;;;6.80;99.90;;;;;;5054407;28;20024;-73
2023/01/11 10:51:18;;;;;;;11.80;11.40;;;6.80;99.90;;;;;;5043242;28;20033;-73
2023/01/11 10:53:58;;;;;;;13.73;13.23;;;6.70;99.90;;;;;;5057620;28;20025;-73
2023/01/11 10:56:27;;;;;;;14.65;14.13;;;6.80;99.90;;;;;;5053862;28;20025;-73
2023/01/11 10:59:03;;;;;;;13.45;12.95;;;6.80;99.90;;;;;;5054345;28;20025;-73
2023/01/11 11:02:13;;;;;;;12.80;12.30;;;6.70;99.90;;;;;;5041849;28;20108;-73
2023/01/11 11:04:52;;;;;;;11.27;10.88;;;6.70;99.90;;;;;;5013376;28;20072;-72
2023/01/11 11:07:41;;;;;;;12.07;11.68;;;6.80;99.90;;;;;;5044563;28;20108;-73
2023/01/11 11:10:36;;;;;;;13.38;12.88;;;6.80;99.90;;;;;;5043674;28;20025;-73
2023/01/11 11:13:33;;;;;;;13.05;12.55;;;6.80;99.90;;;;;;5048445;28;20060;-73
2023/01/11 11:16:01;;;;;;;;;;;6.80;99.90;;;;;;5052470;28;20028;-72
2023/01/11 11:18:27;;;;;;;10.70;10.30;;;6.80;99.90;;;;;;5054542;28;20011;-73
2023/01/11 11:20:54;;;;;;;11.45;11.05;;;6.80;99.90;;;;;;5041286;28;20103;-72
2023/01/11 11:23:23;;;;;;;11.32;10.93;;;6.80;99.90;;;;;;5043659;28;20029;-72
2023/01/11 11:25:56;;;;;;;10.57;10.18;;;6.80;99.90;;;;;;5048130;28;20021;-72
2023/01/11 11:28:21;;;;;;;9.55;9.25;;;6.80;99.90;;;;;;5044864;28;20117;-73
2023/01/11 11:30:48;;;;;;;11.05;10.65;;;6.80;99.90;;;;;;5045734;28;20110;-73
2023/01/11 11:33:22;;;;;;;11.25;10.85;;;6.80;99.90;;;;;;5038270;28;20059;-72
2023/01/11 11:36:04;;;;;;;11.60;11.20;;;6.80;99.90;;;;;;5047508;28;20099;-72
2023/01/11 11:38:37;;;;;;;12.68;12.23;;;6.80;99.90;;;;;;5042582;28;20112;-73
2023/01/11 11:41:05;;;;;;;12.80;12.30;;;6.80;99.90;;;;;;5038667;28;20048;-72
2023/01/11 11:43:33;;;;;;;12.32;11.93;;;6.70;99.90;;;;;;5037541;28;20052;-73
2023/01/11 11:46:04;;;;;;;13.85;13.27;;;6.70;99.90;;;;;;5044420;28;20028;-73
2023/01/11 11:48:34;;;;;;;12.02;11.63;;;6.80;99.90;;;;;;5040259;28;20437;-73
2023/01/11 11:51:05;;;;;;;10.65;10.15;;;6.80;99.90;;;;;;5045055;28;20104;-73
2023/01/11 11:53:36;;;;;;;12.93;12.40;;;6.80;99.90;;;;;;5053788;28;20554;-74
2023/01/11 11:56:07;;;;;;;11.90;11.50;;;6.80;99.90;;;;;;5053900;28;20042;-73
2023/01/11 11:58:33;;;;;;;11.30;10.90;;;6.80;99.90;;;;;;5053399;28;20115;-73
2023/01/11 12:00:59;;;;;;;11.10;10.70;;;6.80;99.90;;;;;;5040630;28;20036;-73
2023/01/11 12:03:31;;;;;;;12.55;11.82;;;6.80;99.90;;;;;;5050423;28;20021;-73
2023/01/11 12:06:02;;;;;;;13.13;12.63;;;6.80;99.90;;;;;;5052246;28;20082;-73
2023/01/11 12:08:31;;;;;;;12.23;11.82;;;6.80;99.90;;;;;;5052045;28;20025;-73
2023/01/11 12:11:00;;;;;;;13.70;12.90;;;6.80;99.90;;;;;;5044409;28;20440;-73
2023/01/11 12:13:34;;;;;;;12.27;11.82;;;6.80;99.90;;;;;;5043312;28;20420;-73
2023/01/11 12:16:03;;;;;;;11.75;11.35;;;6.80;99.90;;;;;;5054009;28;20043;-73
2023/01/11 12:18:42;;;;;;;11.50;11.10;;;6.80;99.90;;;;;;5043654;28;20124;-73
2023/01/11 12:21:25;;;;;;;13.23;12.70;;;6.80;99.90;;;;;;5050923;28;20028;-73
2023/01/11 12:24:18;;;;;;;13.07;12.57;;;6.80;99.90;;;;;;5038036;28;20018;-73
2023/01/11 12:26:56;;;;;;;13.88;13.38;;;6.80;99.90;;;;;;5044094;28;20021;-73
2023/01/11 12:29:35;;;;;;;12.82;12.32;;;6.80;99.90;;;;;;5053434;28;20498;-73
2023/01/11 12:32:18;;;;;;;12.10;11.70;;;6.80;99.90;;;;;;5051075;28;20035;-73
2023/01/11 12:35:14;;;;;;;12.23;11.82;;;6.80;99.90;;;;;;5041107;28;20036;-73
2023/01/11 12:37:55;;;;;;;13.77;13.27;;;6.80;99.90;;;;;;5039452;28;20100;-72
2023/01/11 12:40:54;;;;;;;13.38;12.88;;;6.80;99.90;;;;;;5046798;28;20264;-72
2023/01/11 12:43:56;;;;;;;12.82;12.32;;;6.90;99.90;;;;;;5045016;28;20108;-72
2023/01/11 12:46:40;;;;;;;12.82;12.32;;;6.90;99.90;;;;;;5038761;28;20025;-73
2023/01/11 12:49:15;;;;;;;12.73;12.23;;;6.90;99.90;;;;;;5046792;28;20052;-72
2023/01/11 12:52:05;;;;;;;13.65;13.15;;;6.90;99.90;;;;;;5051870;28;20084;-72
2023/01/11 12:54:30;;;;;;;14.50;14.00;;;6.90;99.90;;;;;;5052766;28;20040;-72
2023/01/11 12:57:11;;;;;;;13.98;13.48;;;6.90;99.90;;;;;;5052496;28;20029;-72
2023/01/11 13:00:04;;;;;;;15.32;14.73;;;6.90;99.90;;;;;;5051312;28;20064;-73
2023/01/11 13:02:55;;;;;;;14.63;14.13;;;7.00;99.90;;;;;;5052339;28;20521;-73
2023/01/11 13:05:45;;;;;;;13.98;13.48;;;7.00;99.90;;;;;;5052601;28;20025;-72
2023/01/11 13:08:56;;;;;;;13.18;12.68;;;7.00;99.90;;;;;;5019640;28;20090;-73
2023/01/11 13:11:44;;;;;;;13.07;12.57;;;7.00;99.90;;;;;;5024978;28;20453;-72
2023/01/11 13:14:39;;;;;;;13.20;12.70;;;7.00;99.90;;;;;;5052316;28;20028;-72
2023/01/11 13:17:23;;;;;;;14.65;14.05;;;7.10;99.90;;;;;;5032832;28;20049;-73
2023/01/11 13:20:31;;;;;;;13.75;13.25;;;7.00;99.90;;;;;;5040024;28;20112;-73
2023/01/11 13:23:10;;;;;;;13.45;12.95;;;7.00;99.90;;;;;;5010484;28;20438;-72
2023/01/11 13:25:41;;;;;;;26.15;24.00;;;7.10;99.90;;;;;;5050438;28;20036;-73
2023/01/11 13:28:19;;;;;;;17.67;16.75;;;7.00;99.90;;;;;;5050712;28;20103;-72
2023/01/11 13:30:46;;;;;;;14.07;13.57;;;7.00;99.90;;;;;;5053702;28;20025;-73
2023/01/11 13:33:19;;;;;;;15.20;14.70;;;7.10;99.90;;;;;;5051843;28;20033;-73
2023/01/11 13:36:03;;;;;;;15.70;15.10;;;7.00;99.90;;;;;;5050111;28;20021;-73
2023/01/11 13:38:45;;;;;;;18.10;17.40;;;7.10;99.90;;;;;;5050743;28;20857;-72
2023/01/11 13:41:27;;;;;;;15.93;15.32;;;7.10;99.90;;;;;;5050947;28;20133;-73
2023/01/11 13:44:05;;;;;;;16.63;16.02;;;7.10;99.90;;;;;;5052042;28;20067;-72
2023/01/11 13:46:30;;;;;;;16.30;15.70;;;7.10;99.90;;;;;;5051635;28;20075;-73
2023/01/11 13:49:29;;;;;;;16.85;16.25;;;7.00;99.90;;;;;;5049395;28;20033;-73
2023/01/11 13:52:02;;;;;;;17.00;16.40;;;7.00;99.90;;;;;;5051293;28;20040;-73